Time;durP1;ratioP1;P1;durP2;ratioP2;P2;SDS_P1;SDS_P2;PMS_P1;PMS_P2;Temp;Humidity;BMP_temperature;BMP_pressure;BME280_temperature;BME280_humidity;BME280_pressure;Samples;Min_cycle;Max_cycle;Signal;HPM_P1;HPM_P2
2023/01/15 00:02:04;;;;;;;1.15;0.68;;;;;;;9.73;99.59;99158.59;5078409;28;20029;-85
2023/01/15 00:04:29;;;;;;;1.90;0.75;;;;;;;9.71;99.73;99138.66;5076865;28;20037;-83
2023/01/15 00:06:55;;;;;;;1.38;0.80;;;;;;;9.72;99.66;99145.56;5074029;28;20026;-83
2023/01/15 00:09:20;;;;;;;1.67;0.80;;;;;;;9.71;100.00;99133.38;5094282;28;20078;-86
2023/01/15 00:11:45;;;;;;;1.77;0.70;;;;;;;9.67;100.00;99132.91;5017410;23;20119;-86
2023/01/15 00:14:11;;;;;;;2.88;0.73;;;;;;;9.67;100.00;99135.56;4996502;28;20038;-86
2023/01/15 00:16:39;;;;;;;1.25;0.73;;;;;;;9.68;100.00;99131.13;4999042;28;20041;-86
2023/01/15 00:19:07;;;;;;;1.10;0.80;;;;;;;9.69;100.00;99130.09;5001102;28;20041;-86
2023/01/15 00:21:33;;;;;;;2.00;0.77;;;;;;;9.70;100.00;99123.81;5008040;28;20034;-87
2023/01/15 00:29:27;;;;;;;1.40;0.63;;;;;;;9.70;100.00;99105.34;5000863;28;20358;-86
2023/01/15 00:31:58;;;;;;;1.35;0.68;;;;;;;9.75;100.00;99095.06;4994856;28;20054;-86
2023/01/15 00:34:25;;;;;;;1.35;0.80;;;;;;;9.75;100.00;99092.44;5001636;28;20030;-86
2023/01/15 00:36:50;;;;;;;1.58;0.60;;;;;;;9.76;100.00;99083.50;5004281;28;20030;-85
2023/01/15 00:39:16;;;;;;;1.30;0.50;;;;;;;9.76;100.00;99086.97;5012318;28;20053;-86
2023/01/15 00:41:41;;;;;;;2.10;0.90;;;;;;;9.72;100.00;99092.78;5000644;28;20130;-86
2023/01/15 00:44:06;;;;;;;0.93;0.60;;;;;;;9.74;100.00;99085.50;5005904;28;20061;-86
2023/01/15 00:46:32;;;;;;;1.15;0.80;;;;;;;9.76;99.97;99079.03;5003618;28;20106;-86
2023/01/15 00:48:57;;;;;;;2.85;0.70;;;;;;;9.73;100.00;99075.97;5002235;28;20041;-86
2023/01/15 00:51:23;;;;;;;1.30;0.70;;;;;;;9.76;100.00;99076.41;5002748;28;20302;-86
2023/01/15 00:53:48;;;;;;;1.55;0.80;;;;;;;9.78;99.98;99076.22;4994811;28;20046;-86
2023/01/15 00:56:13;;;;;;;1.75;0.80;;;;;;;9.75;100.00;99082.69;4987203;28;20034;-86
2023/01/15 00:58:38;;;;;;;2.38;0.70;;;;;;;9.74;100.00;99074.94;4991201;28;20511;-86
2023/01/15 01:01:04;;;;;;;2.97;0.90;;;;;;;9.77;100.00;99074.56;4989922;28;20038;-87
2023/01/15 01:03:29;;;;;;;2.70;0.70;;;;;;;9.77;100.00;99069.28;5003418;28;20062;-87
2023/01/15 01:06:02;;;;;;;1.63;0.80;;;;;;;9.78;100.00;99069.13;4999018;28;20034;-87
2023/01/15 01:08:28;;;;;;;1.52;0.90;;;;;;;9.80;100.00;99076.88;4989820;28;20213;-86
2023/01/15 01:11:05;;;;;;;1.33;0.80;;;;;;;9.77;100.00;99058.72;5006576;28;20128;-86
2023/01/15 01:13:30;;;;;;;1.25;0.70;;;;;;;9.82;100.00;99066.09;4998291;28;20583;-85
2023/01/15 01:15:56;;;;;;;0.90;0.50;;;;;;;9.80;100.00;99071.59;4983349;28;20101;-86
2023/01/15 01:18:24;;;;;;;1.08;0.80;;;;;;;9.83;100.00;99068.56;5000799;28;20074;-86
2023/01/15 01:20:51;;;;;;;1.20;0.80;;;;;;;9.84;100.00;99070.19;4988439;28;20054;-90
2023/01/15 01:23:17;;;;;;;2.40;0.70;;;;;;;9.79;100.00;99059.38;5007556;28;20061;-90
2023/01/15 01:25:44;;;;;;;1.15;0.80;;;;;;;9.82;100.00;99056.38;5007558;28;20359;-89
2023/01/15 01:28:10;;;;;;;1.30;0.70;;;;;;;9.81;100.00;99044.19;5004990;28;20035;-89
2023/01/15 01:30:37;;;;;;;1.60;0.75;;;;;;;9.78;100.00;99053.28;5006920;28;20081;-90
2023/01/15 01:33:03;;;;;;;2.40;0.88;;;;;;;9.85;100.00;99044.66;5008929;28;20042;-90
2023/01/15 01:35:28;;;;;;;1.15;0.70;;;;;;;9.79;100.00;99038.25;5010490;28;20080;-86
2023/01/15 01:37:57;;;;;;;0.98;0.88;;;;;;;9.81;100.00;99049.44;4984467;28;20038;-88
2023/01/15 01:40:23;;;;;;;1.20;0.70;;;;;;;9.79;100.00;99040.91;4982853;28;20527;-89
2023/01/15 01:42:48;;;;;;;0.98;0.60;;;;;;;9.83;100.00;99044.81;4977811;28;20069;-88
2023/01/15 01:45:17;;;;;;;3.15;0.60;;;;;;;9.84;100.00;99046.44;4994948;28;20030;-88
2023/01/15 01:47:44;;;;;;;1.20;0.70;;;;;;;9.81;100.00;99041.53;5003073;28;20412;-87
2023/01/15 01:50:12;;;;;;;1.30;0.60;;;;;;;9.80;100.00;99037.28;4994214;28;20464;-89
2023/01/15 01:52:46;;;;;;;0.90;0.60;;;;;;;9.82;100.00;99040.56;4995523;28;20073;-90
2023/01/15 01:55:14;;;;;;;0.68;0.57;;;;;;;9.82;100.00;99045.81;4976014;28;20100;-90
2023/01/15 01:57:40;;;;;;;1.05;0.60;;;;;;;9.78;100.00;99048.00;4992116;28;20034;-89
2023/01/15 02:00:07;;;;;;;0.85;0.60;;;;;;;9.79;100.00;99036.44;4975172;28;20042;-89
2023/01/15 02:02:32;;;;;;;1.13;0.60;;;;;;;9.81;100.00;99043.34;5007584;28;20018;-90
2023/01/15 02:04:58;;;;;;;0.65;0.50;;;;;;;9.80;100.00;99042.56;4977035;28;20146;-90
2023/01/15 02:07:25;;;;;;;0.50;0.50;;;;;;;9.85;100.00;99034.09;4992967;28;20018;-87
2023/01/15 02:09:51;;;;;;;1.13;0.60;;;;;;;9.82;100.00;99037.91;5005532;28;20064;-87
2023/01/15 02:12:27;;;;;;;0.75;0.60;;;;;;;9.77;100.00;99033.19;5003124;28;20031;-87
2023/01/15 02:15:02;;;;;;;0.57;0.50;;;;;;;9.77;100.00;99034.97;5010427;28;20054;-87
2023/01/15 02:17:35;;;;;;;1.10;0.50;;;;;;;9.81;100.00;99025.69;5018269;28;20034;-87
2023/01/15 02:20:19;;;;;;;0.80;0.60;;;;;;;9.78;100.00;99034.81;5011247;28;20042;-87
2023/01/15 02:23:09;;;;;;;1.05;0.50;;;;;;;9.76;100.00;99030.72;5013039;28;20049;-87
2023/01/15 02:25:54;;;;;;;2.50;0.60;;;;;;;9.76;100.00;99030.72;4997224;28;20040;-87
2023/01/15 02:28:26;;;;;;;1.25;0.60;;;;;;;9.72;100.00;99027.59;4995070;28;20062;-87
2023/01/15 02:31:01;;;;;;;1.42;0.70;;;;;;;9.72;100.00;99030.25;5008228;28;20038;-86
2023/01/15 02:33:34;;;;;;;0.85;0.60;;;;;;;9.73;100.00;99020.53;4979949;28;20253;-86
2023/01/15 02:35:59;;;;;;;0.80;0.40;;;;;;;9.70;100.00;99027.00;4981786;28;20038;-86
2023/01/15 02:38:31;;;;;;;1.65;0.70;;;;;;;9.75;100.00;99016.69;4983506;28;20064;-86
2023/01/15 02:40:58;;;;;;;;;;;;;;;9.73;100.00;99023.16;5002761;28;20085;-86
2023/01/15 02:43:28;;;;;;;1.48;0.60;;;;;;;9.70;100.00;99029.63;4992210;28;19925;-86
2023/01/15 02:45:57;;;;;;;2.08;0.52;;;;;;;9.69;100.00;99025.34;4991021;28;20034;-87
2023/01/15 02:48:25;;;;;;;1.77;0.60;;;;;;;9.70;100.00;99026.16;5010174;28;20117;-88
2023/01/15 02:51:00;;;;;;;1.00;0.60;;;;;;;9.69;100.00;99035.09;4996449;28;20100;-88
2023/01/15 02:53:28;;;;;;;1.35;0.60;;;;;;;9.71;100.00;99027.81;4978382;28;20066;-85
2023/01/15 02:56:00;;;;;;;1.35;0.60;;;;;;;9.70;100.00;99031.44;4979155;28;20049;-86
2023/01/15 02:58:31;;;;;;;2.13;0.80;;;;;;;9.65;100.00;99036.44;4999920;28;20041;-86
2023/01/15 03:00:59;;;;;;;;;;;;;;;9.66;100.00;99046.00;4979093;28;20126;-85
2023/01/15 03:03:37;;;;;;;1.80;0.80;;;;;;;9.63;100.00;99056.91;4987994;28;19922;-86
2023/01/15 03:06:28;;;;;;;1.13;0.75;;;;;;;9.61;100.00;99082.69;4989130;28;20030;-85
2023/01/15 03:08:53;;;;;;;0.45;0.32;;;;;;;9.29;100.00;99090.72;4973984;28;20065;-87
2023/01/15 03:11:19;;;;;;;0.35;0.30;;;;;;;9.01;100.00;99094.91;4988671;28;20030;-85
2023/01/15 03:13:58;;;;;;;0.95;0.40;;;;;;;8.80;100.00;99095.59;4994499;28;20546;-86
2023/01/15 03:16:33;;;;;;;1.92;0.50;;;;;;;8.66;100.00;99100.59;4978881;28;20030;-89
2023/01/15 03:19:23;;;;;;;0.80;0.40;;;;;;;8.58;100.00;99100.66;4986949;28;20496;-89
2023/01/15 03:22:27;;;;;;;0.43;0.30;;;;;;;8.46;100.00;99107.28;4991894;28;20035;-90
2023/01/15 03:25:08;;;;;;;0.50;0.50;;;;;;;8.44;100.00;99106.66;4999300;28;20073;-91
2023/01/15 03:27:33;;;;;;;0.35;0.35;;;;;;;8.40;100.00;99106.19;5009958;28;20060;-90
2023/01/15 03:30:06;;;;;;;0.40;0.30;;;;;;;8.35;100.00;99115.56;4993646;28;20061;-90
2023/01/15 03:32:31;;;;;;;0.30;0.30;;;;;;;8.28;100.00;99115.44;4992787;28;20038;-90
2023/01/15 03:34:57;;;;;;;0.40;0.40;;;;;;;8.27;100.00;99117.25;5011383;28;20034;-90
2023/01/15 03:37:26;;;;;;;0.28;0.28;;;;;;;8.27;100.00;99121.69;4988506;28;20092;-91
2023/01/15 03:39:51;;;;;;;0.22;0.22;;;;;;;8.20;100.00;99128.63;4973912;28;20038;-90
2023/01/15 03:42:31;;;;;;;0.35;0.35;;;;;;;8.21;100.00;99123.19;4975736;28;20030;-87
2023/01/15 03:45:09;;;;;;;0.40;0.30;;;;;;;8.19;100.00;99137.53;5009104;28;20041;-86
2023/01/15 03:48:12;;;;;;;0.45;0.30;;;;;;;8.15;100.00;99142.31;4999282;28;20030;-86
2023/01/15 03:50:51;;;;;;;0.30;0.30;;;;;;;8.15;100.00;99142.31;4997305;28;20056;-89
2023/01/15 03:53:29;;;;;;;0.77;0.30;;;;;;;8.16;100.00;99137.88;5003470;28;20133;-85
2023/01/15 03:56:09;;;;;;;0.38;0.38;;;;;;;8.16;100.00;99133.41;4991079;28;20030;-89
2023/01/15 03:58:41;;;;;;;0.30;0.30;;;;;;;8.12;100.00;99139.19;4990736;28;20043;-89
2023/01/15 04:01:10;;;;;;;0.20;0.20;;;;;;;8.07;100.00;99139.69;4998365;28;20038;-88
2023/01/15 04:03:36;;;;;;;0.50;0.40;;;;;;;8.01;100.00;99129.88;5006115;28;20034;-89
2023/01/15 04:06:03;;;;;;;0.30;0.30;;;;;;;7.98;100.00;99143.34;5005812;28;20074;-91
2023/01/15 04:08:32;;;;;;;0.30;0.30;;;;;;;7.91;100.00;99137.13;4995233;28;20038;-91
2023/01/15 04:10:59;;;;;;;0.82;0.40;;;;;;;7.91;100.00;99152.91;4976097;28;20086;-87
2023/01/15 04:13:25;;;;;;;0.55;0.40;;;;;;;7.87;100.00;99150.63;5000948;28;20042;-86
2023/01/15 04:15:51;;;;;;;0.43;0.43;;;;;;;7.83;100.00;99156.38;5002654;28;20312;-87
2023/01/15 04:18:17;;;;;;;0.30;0.30;;;;;;;7.78;100.00;99156.06;4999097;28;20038;-86
2023/01/15 04:20:43;;;;;;;0.85;0.50;;;;;;;7.70;100.00;99154.28;4994557;28;20065;-86
2023/01/15 04:23:09;;;;;;;0.30;0.30;;;;;;;7.67;100.00;99162.47;4998552;28;20405;-86
2023/01/15 04:25:34;;;;;;;0.25;0.25;;;;;;;7.63;100.00;99155.94;4997841;28;20109;-86
2023/01/15 04:28:00;;;;;;;0.30;0.30;;;;;;;7.58;100.00;99163.47;5000233;28;20330;-86
2023/01/15 04:30:25;;;;;;;0.20;0.20;;;;;;;7.54;100.00;99164.81;4988110;28;20030;-86
2023/01/15 04:32:51;;;;;;;0.75;0.40;;;;;;;7.52;100.00;99164.16;4982129;28;20065;-86
2023/01/15 04:35:18;;;;;;;0.47;0.47;;;;;;;7.44;100.00;99167.63;4998639;28;20428;-90
2023/01/15 04:37:43;;;;;;;0.40;0.40;;;;;;;7.41;100.00;99171.41;4972564;28;20027;-89
2023/01/15 04:44:05;;;;;;;0.63;0.40;;;;;;;7.38;100.00;99179.59;4988614;28;20041;-89
2023/01/15 04:45:39;;;;;;;0.30;0.30;;;;;;;7.27;100.00;99174.69;4990222;28;20416;-88
2023/01/15 04:48:05;;;;;;;0.60;0.30;;;;;;;7.26;100.00;99175.66;4989978;28;20038;-87
2023/01/15 04:50:31;;;;;;;0.35;0.32;;;;;;;7.23;100.00;99182.06;4972867;28;20456;-89
2023/01/15 04:52:56;;;;;;;0.45;0.40;;;;;;;7.21;100.00;99183.22;4974760;28;20117;-89
2023/01/15 04:55:21;;;;;;;0.50;0.40;;;;;;;7.19;100.00;99188.63;4989184;28;20049;-90
2023/01/15 04:57:48;;;;;;;0.40;0.38;;;;;;;7.15;100.00;99181.22;5003879;28;20095;-89
2023/01/15 05:00:14;;;;;;;0.93;0.40;;;;;;;7.13;100.00;99193.75;4975034;28;20042;-89
2023/01/15 05:02:40;;;;;;;0.60;0.43;;;;;;;7.12;100.00;99200.78;4973873;28;20050;-90
2023/01/15 05:05:06;;;;;;;0.40;0.40;;;;;;;7.11;100.00;99207.03;4990142;28;20409;-90
2023/01/15 05:07:31;;;;;;;0.30;0.30;;;;;;;7.09;100.00;99203.75;4988941;28;20039;-89
2023/01/15 05:09:57;;;;;;;0.30;0.30;;;;;;;7.08;100.00;99206.50;4988673;28;20030;-88
2023/01/15 05:12:22;;;;;;;0.30;0.30;;;;;;;7.08;100.00;99202.09;4991120;28;20396;-88
2023/01/15 05:14:47;;;;;;;1.23;0.40;;;;;;;7.04;100.00;99205.22;4994150;28;20042;-88
2023/01/15 05:17:13;;;;;;;0.50;0.30;;;;;;;6.99;100.00;99203.06;4975852;28;20034;-87
2023/01/15 05:19:38;;;;;;;0.35;0.30;;;;;;;6.96;100.00;99216.50;4990168;28;20030;-87
2023/01/15 05:22:04;;;;;;;0.40;0.40;;;;;;;6.98;100.00;99217.19;4989608;28;20117;-88
2023/01/15 05:24:30;;;;;;;0.30;0.30;;;;;;;6.95;100.00;99205.19;4991005;28;20038;-86
2023/01/15 05:26:57;;;;;;;0.30;0.30;;;;;;;6.93;100.00;99206.31;4995826;28;20034;-86
2023/01/15 05:29:22;;;;;;;0.55;0.35;;;;;;;6.90;100.00;99212.72;4998589;28;20049;-86
2023/01/15 05:31:48;;;;;;;0.75;0.30;;;;;;;6.90;100.00;99204.84;4992913;28;20043;-86
2023/01/15 05:34:13;;;;;;;0.30;0.30;;;;;;;6.88;100.00;99216.50;4992988;28;20044;-86
2023/01/15 05:36:39;;;;;;;0.30;0.30;;;;;;;6.86;100.00;99214.03;4992296;28;20440;-86
2023/01/15 05:39:05;;;;;;;0.40;0.40;;;;;;;6.87;100.00;99213.06;4992922;28;20097;-86
2023/01/15 05:41:48;;;;;;;0.45;0.35;;;;;;;6.85;100.00;99217.66;5000019;28;20038;-86
2023/01/15 05:44:18;;;;;;;0.30;0.30;;;;;;;6.83;100.00;99214.34;4998839;28;20058;-86
2023/01/15 05:46:43;;;;;;;0.30;0.30;;;;;;;6.80;100.00;99228.63;5001979;28;20104;-86
2023/01/15 05:49:13;;;;;;;0.43;0.40;;;;;;;6.78;100.00;99222.72;4999598;28;20034;-87
2023/01/15 05:51:39;;;;;;;0.38;0.30;;;;;;;6.77;100.00;99225.53;5005135;28;20034;-86
2023/01/15 05:54:06;;;;;;;0.40;0.40;;;;;;;6.71;100.00;99221.69;5019233;28;20327;-86
2023/01/15 05:56:34;;;;;;;0.85;0.40;;;;;;;6.70;100.00;99242.91;5005765;28;20049;-86
2023/01/15 05:58:59;;;;;;;0.30;0.30;;;;;;;6.68;100.00;99236.97;5003754;28;20046;-86
2023/01/15 06:01:25;;;;;;;0.30;0.30;;;;;;;6.65;100.00;99243.38;5003909;28;20034;-86
2023/01/15 06:03:52;;;;;;;0.50;0.40;;;;;;;6.64;100.00;99235.63;5005377;28;20049;-86
2023/01/15 06:06:17;;;;;;;0.30;0.30;;;;;;;6.57;100.00;99219.69;5004840;28;20038;-86
2023/01/15 06:08:43;;;;;;;0.30;0.30;;;;;;;6.59;100.00;99226.41;4992145;28;20065;-86
2023/01/15 06:11:10;;;;;;;0.20;0.20;;;;;;;6.55;100.00;99225.13;4993257;28;20049;-86
2023/01/15 06:13:36;;;;;;;0.35;0.35;;;;;;;6.54;100.00;99233.13;5004273;28;20127;-86
2023/01/15 06:16:02;;;;;;;0.30;0.30;;;;;;;6.52;100.00;99237.72;5006775;28;20061;-86
2023/01/15 06:18:28;;;;;;;0.30;0.30;;;;;;;6.49;100.00;99248.53;5006595;28;20398;-86
2023/01/15 06:20:53;;;;;;;0.40;0.40;;;;;;;6.46;100.00;99252.31;5014885;28;20038;-86
2023/01/15 06:23:18;;;;;;;0.20;0.20;;;;;;;6.41;100.00;99265.06;5010156;28;20035;-86
2023/01/15 06:25:44;;;;;;;0.25;0.25;;;;;;;6.34;100.00;99290.28;4997623;28;20065;-86
2023/01/15 06:28:10;;;;;;;0.30;0.30;;;;;;;6.31;100.00;99288.81;5006327;28;20042;-86
2023/01/15 06:30:37;;;;;;;0.43;0.43;;;;;;;6.21;100.00;99293.34;5010273;28;20038;-86
2023/01/15 06:33:03;;;;;;;0.40;0.40;;;;;;;6.22;100.00;99296.78;4995658;28;20105;-85
2023/01/15 06:35:28;;;;;;;0.45;0.35;;;;;;;6.23;100.00;99296.63;4999982;28;20049;-86
2023/01/15 06:37:54;;;;;;;0.20;0.20;;;;;;;6.24;100.00;99308.78;5007023;28;20039;-86
2023/01/15 06:40:20;;;;;;;0.45;0.40;;;;;;;6.17;100.00;99313.00;4996109;28;20471;-86
2023/01/15 06:48:20;;;;;;;0.30;0.30;;;;;;;6.21;100.00;99303.03;4992001;28;20412;-89
2023/01/15 06:50:45;;;;;;;0.40;0.40;;;;;;;6.14;100.00;99302.81;4984628;28;20030;-89
2023/01/15 06:53:12;;;;;;;0.30;0.30;;;;;;;6.15;100.00;99302.66;4989688;28;20045;-86
2023/01/15 06:55:37;;;;;;;0.30;0.30;;;;;;;6.13;100.00;99307.22;4990629;28;20538;-89
2023/01/15 06:58:03;;;;;;;0.20;0.20;;;;;;;6.12;100.00;99328.38;4989912;28;20031;-89
2023/01/15 07:00:28;;;;;;;0.22;0.22;;;;;;;6.14;100.00;99323.81;4992427;28;20520;-89
2023/01/15 07:02:53;;;;;;;0.30;0.30;;;;;;;6.14;100.00;99334.31;5006592;28;20035;-89
2023/01/15 07:05:19;;;;;;;1.17;0.40;;;;;;;6.13;100.00;99346.59;4979262;28;20066;-89
2023/01/15 07:07:44;;;;;;;0.32;0.20;;;;;;;6.11;100.00;99345.94;4981897;28;20034;-89
2023/01/15 07:10:10;;;;;;;0.65;0.30;;;;;;;6.15;100.00;99354.34;4989652;28;20310;-90
2023/01/15 07:12:35;;;;;;;0.32;0.30;;;;;;;6.15;100.00;99364.84;4973993;28;20038;-89
2023/01/15 07:15:01;;;;;;;0.40;0.40;;;;;;;6.16;100.00;99364.66;4974001;28;20142;-89
2023/01/15 07:17:26;;;;;;;0.32;0.32;;;;;;;6.12;100.00;99373.81;4973986;28;20034;-89
2023/01/15 07:19:51;;;;;;;0.30;0.30;;;;;;;6.10;100.00;99381.03;4974077;28;20088;-89
2023/01/15 07:22:17;;;;;;;0.40;0.40;;;;;;;6.10;100.00;99399.41;4972916;28;20412;-89
2023/01/15 07:24:42;;;;;;;0.25;0.25;;;;;;;6.12;100.00;99391.38;4990258;28;20046;-89
2023/01/15 07:27:08;;;;;;;0.30;0.30;;;;;;;6.11;100.00;99401.03;4973855;28;20113;-89
2023/01/15 07:29:33;;;;;;;0.35;0.35;;;;;;;6.15;100.00;99410.28;4989731;28;20037;-89
2023/01/15 07:31:59;;;;;;;0.30;0.30;;;;;;;6.16;100.00;99406.66;5005724;28;20089;-89
2023/01/15 07:34:24;;;;;;;0.30;0.30;;;;;;;6.14;100.00;99403.34;4979853;28;20033;-89
2023/01/15 07:36:50;;;;;;;0.47;0.40;;;;;;;6.15;100.00;99409.47;4990206;28;20713;-89
2023/01/15 07:39:15;;;;;;;0.35;0.35;;;;;;;6.13;100.00;99406.16;4973073;28;20046;-88
2023/01/15 07:50:00;;;;;;;1.05;0.40;;;;;;;6.16;100.00;99417.16;4988593;28;20125;-89
2023/01/15 07:52:29;;;;;;;0.30;0.30;;;;;;;6.14;100.00;99423.53;4969399;28;20050;-88
2023/01/15 07:54:54;;;;;;;0.65;0.57;;;;;;;6.15;100.00;99433.06;4988312;28;20057;-89
2023/01/15 07:57:21;;;;;;;1.00;0.70;;;;;;;6.04;100.00;99444.59;4983685;28;20121;-90
2023/01/15 07:59:47;;;;;;;0.77;0.68;;;;;;;6.01;100.00;99438.84;5006820;28;20038;-88
2023/01/15 08:02:13;;;;;;;1.00;0.80;;;;;;;5.90;100.00;99443.28;5006194;28;20704;-89
2023/01/15 08:04:39;;;;;;;0.93;0.80;;;;;;;5.90;100.00;99455.59;5006613;28;20097;-87
2023/01/15 08:07:05;;;;;;;1.77;0.73;;;;;;;5.83;100.00;99447.47;4982211;28;20448;-87
2023/01/15 08:09:31;;;;;;;2.65;0.98;;;;;;;5.84;100.00;99448.28;4990408;28;20039;-87
2023/01/15 08:17:33;;;;;;;0.82;0.70;;;;;;;5.79;100.00;99459.22;4993347;28;20041;-86
2023/01/15 08:19:59;;;;;;;1.30;0.70;;;;;;;5.79;100.00;99456.59;4996355;28;20062;-86
2023/01/15 08:22:24;;;;;;;0.82;0.52;;;;;;;5.78;100.00;99462.84;4983699;28;20041;-86
2023/01/15 08:24:50;;;;;;;0.50;0.50;;;;;;;5.80;100.00;99463.50;4984789;28;20054;-86
2023/01/15 08:27:16;;;;;;;0.45;0.45;;;;;;;5.81;100.00;99465.16;5004916;28;20114;-85
2023/01/15 08:29:41;;;;;;;0.43;0.40;;;;;;;5.85;100.00;99471.75;4984518;28;20058;-89
2023/01/15 08:32:07;;;;;;;0.65;0.55;;;;;;;5.81;100.00;99464.34;4952223;28;20058;-89
2023/01/15 08:34:33;;;;;;;0.50;0.50;;;;;;;5.85;100.00;99468.31;4992079;28;20465;-89
2023/01/15 08:36:59;;;;;;;0.50;0.50;;;;;;;5.76;99.95;99472.66;4982494;28;20054;-89
2023/01/15 08:39:27;;;;;;;0.75;0.50;;;;;;;5.70;99.82;99487.19;4992105;28;20042;-89
2023/01/15 08:41:54;;;;;;;0.55;0.47;;;;;;;5.65;100.00;99489.41;4991290;28;20069;-89
2023/01/15 08:44:20;;;;;;;1.05;0.50;;;;;;;5.65;100.00;99488.56;4991277;28;20030;-89
2023/01/15 08:46:47;;;;;;;0.40;0.40;;;;;;;5.63;100.00;99483.50;4991195;28;20038;-87
2023/01/15 08:49:13;;;;;;;0.80;0.50;;;;;;;5.71;100.00;99485.38;4996051;28;20065;-89
2023/01/15 08:51:38;;;;;;;0.40;0.40;;;;;;;5.67;99.76;99489.25;4986931;28;20035;-88
2023/01/15 08:54:04;;;;;;;0.75;0.45;;;;;;;5.69;99.69;99493.38;4993473;28;20037;-89
2023/01/15 08:56:30;;;;;;;0.40;0.40;;;;;;;5.71;99.91;99490.63;4976780;28;20105;-89
2023/01/15 08:58:55;;;;;;;0.57;0.40;;;;;;;5.72;100.00;99500.97;4990598;28;20126;-89
2023/01/15 09:01:21;;;;;;;0.55;0.55;;;;;;;5.73;99.81;99496.56;4989235;28;20117;-88
2023/01/15 09:03:46;;;;;;;0.55;0.47;;;;;;;5.72;99.80;99502.75;4988834;28;20041;-87
2023/01/15 09:06:12;;;;;;;0.63;0.47;;;;;;;5.75;98.99;99512.97;4993669;28;20157;-89
2023/01/15 09:08:38;;;;;;;0.57;0.50;;;;;;;5.73;99.32;99514.91;4972600;28;20394;-88
2023/01/15 09:11:05;;;;;;;2.17;0.70;;;;;;;5.70;99.24;99526.53;4987274;28;20968;-88
2023/01/15 09:13:32;;;;;;;2.25;0.98;;;;;;;5.70;99.30;99529.16;4979735;28;20400;-90
2023/01/15 09:16:02;;;;;;;2.40;0.93;;;;;;;5.72;99.53;99529.84;4987721;28;20035;-89
2023/01/15 09:18:28;;;;;;;1.92;0.98;;;;;;;5.74;99.70;99530.50;4982798;28;20046;-90
2023/01/15 09:20:54;;;;;;;1.35;0.90;;;;;;;5.77;99.25;99536.41;5009312;28;20038;-86
2023/01/15 09:23:19;;;;;;;2.33;1.10;;;;;;;5.73;99.19;99544.59;4988767;28;20114;-88
2023/01/15 09:25:58;;;;;;;1.40;0.90;;;;;;;5.71;99.07;99537.84;4980798;28;20030;-90
2023/01/15 09:28:23;;;;;;;1.38;0.80;;;;;;;5.71;99.02;99537.84;4988735;28;20489;-89
2023/01/15 09:30:49;;;;;;;1.77;0.90;;;;;;;5.66;98.72;99537.44;4988795;28;20065;-90
2023/01/15 09:33:15;;;;;;;1.30;0.70;;;;;;;5.68;98.53;99551.25;4990186;28;20435;-85
2023/01/15 09:35:44;;;;;;;0.77;0.60;;;;;;;5.64;98.23;99553.31;4985215;28;20034;-89
2023/01/15 09:38:14;;;;;;;1.50;0.63;;;;;;;5.62;97.96;99550.00;4994733;28;20030;-89
2023/01/15 09:40:48;;;;;;;1.08;0.40;;;;;;;5.63;98.24;99558.72;4995739;28;20042;-90
2023/01/15 09:43:46;;;;;;;1.38;0.50;;;;;;;5.63;98.50;99561.34;4982371;28;20045;-89
2023/01/15 09:46:20;;;;;;;0.88;0.52;;;;;;;5.63;97.58;99572.66;4981433;28;20037;-89
2023/01/15 09:48:45;;;;;;;0.98;0.68;;;;;;;5.65;98.09;99568.09;5004472;28;20046;-89
2023/01/15 09:51:21;;;;;;;0.80;0.60;;;;;;;5.69;98.35;99571.25;5004301;28;20092;-89
2023/01/15 09:54:04;;;;;;;1.38;0.60;;;;;;;5.71;98.31;99574.56;4968366;28;20501;-89
2023/01/15 09:56:32;;;;;;;1.88;0.88;;;;;;;5.79;97.71;99585.13;4968772;28;20038;-89
2023/01/15 09:59:00;;;;;;;0.60;0.55;;;;;;;5.78;97.46;99587.94;4983708;28;20034;-89
2023/01/15 10:01:30;;;;;;;0.98;0.70;;;;;;;5.82;97.76;99586.69;4991818;28;20126;-89
2023/01/15 10:04:15;;;;;;;0.90;0.70;;;;;;;5.82;97.55;99586.69;4996406;28;20527;-86
2023/01/15 10:06:47;;;;;;;1.50;0.90;;;;;;;5.83;97.64;99591.75;4977586;28;20703;-89
2023/01/15 10:09:36;;;;;;;3.13;1.15;;;;;;;5.80;97.27;99583.38;4982758;28;20039;-86
2023/01/15 10:15:26;;;;;;;2.15;1.10;;;;;;;5.87;97.39;99600.19;5005077;28;20149;-85
2023/01/15 10:17:55;;;;;;;1.65;0.90;;;;;;;5.85;97.47;99612.63;4968005;28;20084;-89
2023/01/15 10:20:26;;;;;;;1.52;0.80;;;;;;;5.86;96.78;99609.00;4990612;28;20026;-89
2023/01/15 10:23:05;;;;;;;2.22;0.82;;;;;;;5.83;96.75;99618.00;4991414;28;20041;-89
2023/01/15 10:25:41;;;;;;;2.53;0.82;;;;;;;5.79;96.84;99608.75;4992601;28;20035;-90
2023/01/15 10:28:18;;;;;;;1.60;1.00;;;;;;;5.81;97.34;99626.97;4978938;28;20125;-89
2023/01/15 10:30:50;;;;;;;2.38;0.98;;;;;;;5.66;98.99;99687.75;4976423;28;20046;-88
2023/01/15 10:33:42;;;;;;;1.65;0.70;;;;;;;5.42;93.98;99692.63;4994789;28;20177;-86
2023/01/15 10:36:18;;;;;;;1.35;0.65;;;;;;;4.63;93.69;99704.00;4989287;28;20042;-86
2023/01/15 10:38:58;;;;;;;2.60;0.70;;;;;;;4.47;95.81;99696.66;4991113;28;20077;-86
2023/01/15 10:41:29;;;;;;;0.80;0.60;;;;;;;4.33;96.50;99699.63;4988632;28;20115;-87
2023/01/15 10:44:11;;;;;;;2.00;0.60;;;;;;;4.25;97.36;99695.06;4988717;28;20030;-86
2023/01/15 10:46:39;;;;;;;1.48;0.50;;;;;;;4.24;97.95;99693.38;4989362;28;20294;-86
2023/01/15 10:49:10;;;;;;;1.42;0.60;;;;;;;4.17;99.01;99697.47;4987914;28;20042;-87
2023/01/15 10:51:57;;;;;;;0.75;0.52;;;;;;;4.19;99.19;99693.78;4978423;28;20053;-87
2023/01/15 10:54:30;;;;;;;1.92;0.80;;;;;;;4.21;98.73;99689.25;4982434;28;20046;-86
2023/01/15 10:57:13;;;;;;;1.15;0.70;;;;;;;4.24;99.17;99688.16;4991630;28;20046;-87
2023/01/15 10:59:47;;;;;;;1.60;0.57;;;;;;;4.17;99.04;99684.41;4984368;28;20035;-87
2023/01/15 11:02:43;;;;;;;0.70;0.50;;;;;;;4.22;99.25;99687.47;4973250;28;20046;-87
2023/01/15 11:05:15;;;;;;;2.92;0.80;;;;;;;4.17;99.10;99680.03;5010906;28;20128;-88
2023/01/15 11:07:46;;;;;;;0.93;0.50;;;;;;;4.15;99.13;99686.34;5008631;28;20026;-88
2023/01/15 11:10:15;;;;;;;0.65;0.50;;;;;;;4.12;99.63;99702.28;4989710;28;20061;-87
2023/01/15 11:21:19;;;;;;;0.93;0.60;;;;;;;4.11;99.77;99711.94;4991126;28;20048;-87
2023/01/15 11:23:57;;;;;;;0.73;0.60;;;;;;;4.09;100.00;99705.16;4991891;28;20045;-88
2023/01/15 11:26:31;;;;;;;1.17;0.57;;;;;;;4.06;100.00;99708.88;4985497;28;20038;-86
2023/01/15 11:29:00;;;;;;;1.70;0.70;;;;;;;4.08;99.30;99709.56;4977058;28;20042;-87
2023/01/15 11:31:36;;;;;;;2.65;0.70;;;;;;;4.03;99.34;99701.28;4989216;28;20095;-87
2023/01/15 11:34:04;;;;;;;0.75;0.63;;;;;;;4.09;99.39;99713.84;4989890;28;20515;-88
2023/01/15 11:36:31;;;;;;;0.80;0.50;;;;;;;4.08;100.00;99700.91;4990682;28;20037;-88
2023/01/15 11:38:57;;;;;;;0.75;0.68;;;;;;;4.08;100.00;99703.53;4990857;28;20504;-88
2023/01/15 11:52:24;;;;;;;1.05;0.80;;;;;;;3.85;99.42;99714.13;4985019;28;20045;-87
2023/01/15 11:54:54;;;;;;;1.02;0.70;;;;;;;3.77;98.97;99713.94;4971912;28;20133;-87
2023/01/15 11:57:29;;;;;;;1.67;0.77;;;;;;;3.80;99.61;99713.69;4984092;28;20036;-87
2023/01/15 11:59:56;;;;;;;2.55;0.98;;;;;;;3.69;100.00;99713.75;4982431;28;20049;-88
2023/01/15 12:02:59;;;;;;;0.85;0.60;;;;;;;3.78;100.00;99710.38;4988729;28;20050;-87
2023/01/15 12:05:28;;;;;;;1.88;0.90;;;;;;;3.77;99.88;99711.34;4971438;28;20042;-87
2023/01/15 12:07:57;;;;;;;2.72;1.20;;;;;;;3.77;100.00;99717.38;4987524;28;20125;-87
2023/01/15 12:13:34;;;;;;;3.08;1.27;;;;;;;3.67;100.00;99713.03;4988027;28;20052;-86
2023/01/15 12:16:26;;;;;;;4.55;1.40;;;;;;;3.73;100.00;99720.38;4986171;28;20531;-88
2023/01/15 12:19:21;;;;;;;4.90;1.33;;;;;;;3.74;100.00;99699.34;4982699;28;20050;-88
2023/01/15 12:22:12;;;;;;;4.88;1.50;;;;;;;3.76;100.00;99688.75;4998396;28;20118;-88
2023/01/15 12:25:06;;;;;;;2.88;1.40;;;;;;;3.82;100.00;99691.69;4980009;28;20058;-89
2023/01/15 12:27:56;;;;;;;6.45;2.30;;;;;;;4.01;100.00;99684.91;5005654;28;20093;-90
2023/01/15 12:30:29;;;;;;;6.20;1.90;;;;;;;4.14;100.00;99687.28;4987301;28;20042;-89
2023/01/15 12:33:18;;;;;;;3.05;1.38;;;;;;;4.29;99.84;99682.53;4988650;28;20038;-89
2023/01/15 12:35:55;;;;;;;1.40;0.80;;;;;;;4.41;99.19;99666.59;4989275;28;20042;-89
2023/01/15 12:38:40;;;;;;;1.42;0.90;;;;;;;4.47;98.70;99660.00;5005236;28;20436;-89
2023/01/15 12:44:59;;;;;;;3.85;1.25;;;;;;;4.55;98.41;99657.53;5005140;28;20038;-89
2023/01/15 12:47:24;;;;;;;1.10;0.60;;;;;;;4.61;98.72;99661.41;5001599;28;20064;-88